sensor_id;sensor_type;location;lat;lon;timestamp;P1;durP1;ratioP1;P2;durP2;ratioP2
49444;SDS011;35323;43.080;-81.378;2023-06-04T00:02:25;8.57;;;6.25;;
49444;SDS011;35323;43.080;-81.378;2023-06-04T00:04:53;8.38;;;5.72;;
49444;SDS011;35323;43.080;-81.378;2023-06-04T00:07:21;6.32;;;5.05;;
49444;SDS011;35323;43.080;-81.378;2023-06-04T00:09:49;6.45;;;5.82;;
49444;SDS011;35323;43.080;-81.378;2023-06-04T00:12:16;8.35;;;4.68;;
49444;SDS011;35323;43.080;-81.378;2023-06-04T00:14:44;7.80;;;6.53;;
49444;SDS011;35323;43.080;-81.378;2023-06-04T00:17:12;12.07;;;6.00;;
49444;SDS011;35323;43.080;-81.378;2023-06-04T00:19:39;8.65;;;5.35;;
49444;SDS011;35323;43.080;-81.378;2023-06-04T00:22:13;8.50;;;4.60;;
49444;SDS011;35323;43.080;-81.378;2023-06-04T00:24:40;5.80;;;5.00;;
49444;SDS011;35323;43.080;-81.378;2023-06-04T00:27:08;7.82;;;6.05;;
49444;SDS011;35323;43.080;-81.378;2023-06-04T00:29:36;6.05;;;4.97;;
49444;SDS011;35323;43.080;-81.378;2023-06-04T00:32:03;9.35;;;6.47;;
49444;SDS011;35323;43.080;-81.378;2023-06-04T00:34:32;6.43;;;5.75;;
49444;SDS011;35323;43.080;-81.378;2023-06-04T00:36:59;9.43;;;5.63;;
49444;SDS011;35323;43.080;-81.378;2023-06-04T00:39:30;6.38;;;4.95;;
49444;SDS011;35323;43.080;-81.378;2023-06-04T00:41:57;5.40;;;4.55;;
49444;SDS011;35323;43.080;-81.378;2023-06-04T00:44:25;5.68;;;4.90;;
49444;SDS011;35323;43.080;-81.378;2023-06-04T00:46:56;7.72;;;5.40;;
49444;SDS011;35323;43.080;-81.378;2023-06-04T00:49:24;5.93;;;4.20;;
49444;SDS011;35323;43.080;-81.378;2023-06-04T00:51:52;6.57;;;4.63;;
49444;SDS011;35323;43.080;-81.378;2023-06-04T00:54:25;5.88;;;4.18;;
49444;SDS011;35323;43.080;-81.378;2023-06-04T00:56:52;7.03;;;4.88;;
49444;SDS011;35323;43.080;-81.378;2023-06-04T00:59:23;7.85;;;4.22;;
49444;SDS011;35323;43.080;-81.378;2023-06-04T01:04:24;6.22;;;4.63;;
49444;SDS011;35323;43.080;-81.378;2023-06-04T01:06:53;4.63;;;3.72;;
49444;SDS011;35323;43.080;-81.378;2023-06-04T01:09:22;4.72;;;3.45;;
49444;SDS011;35323;43.080;-81.378;2023-06-04T01:11:53;5.90;;;3.33;;
49444;SDS011;35323;43.080;-81.378;2023-06-04T01:14:21;3.33;;;3.03;;
49444;SDS011;35323;43.080;-81.378;2023-06-04T01:16:52;6.63;;;3.47;;
49444;SDS011;35323;43.080;-81.378;2023-06-04T01:19:51;5.57;;;3.03;;
49444;SDS011;35323;43.080;-81.378;2023-06-04T01:24:59;4.18;;;2.90;;
49444;SDS011;35323;43.080;-81.378;2023-06-04T01:27:29;7.05;;;2.67;;
49444;SDS011;35323;43.080;-81.378;2023-06-04T01:29:58;5.93;;;3.60;;
49444;SDS011;35323;43.080;-81.378;2023-06-04T01:32:27;3.85;;;2.67;;
49444;SDS011;35323;43.080;-81.378;2023-06-04T01:34:55;4.82;;;2.63;;
49444;SDS011;35323;43.080;-81.378;2023-06-04T01:37:23;4.20;;;2.60;;
49444;SDS011;35323;43.080;-81.378;2023-06-04T01:39:50;2.88;;;2.55;;
49444;SDS011;35323;43.080;-81.378;2023-06-04T01:42:18;2.88;;;2.38;;
49444;SDS011;35323;43.080;-81.378;2023-06-04T01:44:46;3.60;;;2.70;;
49444;SDS011;35323;43.080;-81.378;2023-06-04T01:47:13;5.68;;;2.95;;
49444;SDS011;35323;43.080;-81.378;2023-06-04T01:49:42;5.65;;;3.05;;
49444;SDS011;35323;43.080;-81.378;2023-06-04T01:52:09;3.25;;;2.03;;
49444;SDS011;35323;43.080;-81.378;2023-06-04T01:54:38;5.18;;;4.20;;
49444;SDS011;35323;43.080;-81.378;2023-06-04T01:57:05;4.78;;;2.83;;
49444;SDS011;35323;43.080;-81.378;2023-06-04T01:59:33;2.20;;;2.00;;
49444;SDS011;35323;43.080;-81.378;2023-06-04T02:02:04;3.85;;;2.47;;
49444;SDS011;35323;43.080;-81.378;2023-06-04T02:04:32;3.08;;;2.75;;
49444;SDS011;35323;43.080;-81.378;2023-06-04T02:07:03;7.35;;;2.03;;
49444;SDS011;35323;43.080;-81.378;2023-06-04T02:09:31;3.08;;;2.13;;
49444;SDS011;35323;43.080;-81.378;2023-06-04T02:11:58;3.47;;;3.15;;
49444;SDS011;35323;43.080;-81.378;2023-06-04T02:14:26;6.97;;;2.30;;
49444;SDS011;35323;43.080;-81.378;2023-06-04T02:16:54;2.90;;;2.15;;
49444;SDS011;35323;43.080;-81.378;2023-06-04T02:19:24;4.00;;;2.40;;
49444;SDS011;35323;43.080;-81.378;2023-06-04T02:21:53;3.35;;;2.13;;
49444;SDS011;35323;43.080;-81.378;2023-06-04T02:24:21;3.22;;;2.92;;
49444;SDS011;35323;43.080;-81.378;2023-06-04T02:26:49;3.42;;;3.13;;
49444;SDS011;35323;43.080;-81.378;2023-06-04T02:29:17;3.80;;;2.63;;
49444;SDS011;35323;43.080;-81.378;2023-06-04T02:31:45;3.25;;;2.88;;
49444;SDS011;35323;43.080;-81.378;2023-06-04T02:34:12;4.40;;;3.58;;
49444;SDS011;35323;43.080;-81.378;2023-06-04T02:36:42;6.68;;;2.60;;
49444;SDS011;35323;43.080;-81.378;2023-06-04T02:39:16;5.75;;;3.17;;
49444;SDS011;35323;43.080;-81.378;2023-06-04T02:41:46;5.82;;;3.33;;
49444;SDS011;35323;43.080;-81.378;2023-06-04T02:44:14;3.80;;;3.03;;
49444;SDS011;35323;43.080;-81.378;2023-06-04T02:46:42;2.65;;;2.45;;
49444;SDS011;35323;43.080;-81.378;2023-06-04T02:49:10;4.40;;;2.55;;
49444;SDS011;35323;43.080;-81.378;2023-06-04T02:51:41;5.57;;;3.60;;
49444;SDS011;35323;43.080;-81.378;2023-06-04T02:54:08;4.18;;;3.63;;
49444;SDS011;35323;43.080;-81.378;2023-06-04T02:56:36;4.75;;;2.63;;
49444;SDS011;35323;43.080;-81.378;2023-06-04T02:59:04;4.47;;;2.72;;
49444;SDS011;35323;43.080;-81.378;2023-06-04T03:01:32;4.13;;;2.58;;
49444;SDS011;35323;43.080;-81.378;2023-06-04T03:04:00;3.72;;;3.38;;
49444;SDS011;35323;43.080;-81.378;2023-06-04T03:06:31;8.98;;;3.55;;
49444;SDS011;35323;43.080;-81.378;2023-06-04T03:09:02;5.07;;;3.05;;
49444;SDS011;35323;43.080;-81.378;2023-06-04T03:11:29;6.38;;;2.65;;
49444;SDS011;35323;43.080;-81.378;2023-06-04T03:13:57;3.20;;;2.58;;
49444;SDS011;35323;43.080;-81.378;2023-06-04T03:16:25;6.53;;;3.28;;
49444;SDS011;35323;43.080;-81.378;2023-06-04T03:18:55;4.88;;;2.75;;
49444;SDS011;35323;43.080;-81.378;2023-06-04T03:21:23;4.90;;;3.40;;
49444;SDS011;35323;43.080;-81.378;2023-06-04T03:23:52;6.20;;;3.50;;
49444;SDS011;35323;43.080;-81.378;2023-06-04T03:26:20;8.30;;;4.30;;
49444;SDS011;35323;43.080;-81.378;2023-06-04T03:28:48;12.52;;;4.07;;
49444;SDS011;35323;43.080;-81.378;2023-06-04T03:31:15;5.63;;;4.85;;
49444;SDS011;35323;43.080;-81.378;2023-06-04T03:33:43;6.15;;;4.40;;
49444;SDS011;35323;43.080;-81.378;2023-06-04T03:36:13;4.75;;;3.78;;
49444;SDS011;35323;43.080;-81.378;2023-06-04T03:38:41;4.78;;;3.25;;
49444;SDS011;35323;43.080;-81.378;2023-06-04T03:41:08;6.47;;;3.85;;
49444;SDS011;35323;43.080;-81.378;2023-06-04T03:43:36;4.50;;;3.38;;
49444;SDS011;35323;43.080;-81.378;2023-06-04T03:46:03;5.75;;;5.18;;
49444;SDS011;35323;43.080;-81.378;2023-06-04T03:48:31;5.43;;;4.30;;
49444;SDS011;35323;43.080;-81.378;2023-06-04T03:50:59;12.50;;;3.83;;
49444;SDS011;35323;43.080;-81.378;2023-06-04T03:53:26;6.30;;;4.78;;
49444;SDS011;35323;43.080;-81.378;2023-06-04T03:55:54;5.50;;;3.22;;
49444;SDS011;35323;43.080;-81.378;2023-06-04T03:58:22;7.35;;;3.60;;
49444;SDS011;35323;43.080;-81.378;2023-06-04T04:00:51;4.38;;;3.75;;
49444;SDS011;35323;43.080;-81.378;2023-06-04T04:03:18;6.38;;;4.32;;
49444;SDS011;35323;43.080;-81.378;2023-06-04T04:05:46;5.82;;;4.00;;
49444;SDS011;35323;43.080;-81.378;2023-06-04T04:08:14;5.65;;;3.42;;
49444;SDS011;35323;43.080;-81.378;2023-06-04T04:10:43;9.02;;;5.60;;
49444;SDS011;35323;43.080;-81.378;2023-06-04T04:13:12;8.85;;;4.80;;
49444;SDS011;35323;43.080;-81.378;2023-06-04T04:15:39;7.95;;;3.95;;
49444;SDS011;35323;43.080;-81.378;2023-06-04T04:18:07;6.18;;;3.85;;
49444;SDS011;35323;43.080;-81.378;2023-06-04T04:20:35;4.25;;;3.40;;
49444;SDS011;35323;43.080;-81.378;2023-06-04T04:23:03;5.43;;;4.18;;
49444;SDS011;35323;43.080;-81.378;2023-06-04T04:25:30;9.25;;;5.18;;
49444;SDS011;35323;43.080;-81.378;2023-06-04T04:27:59;5.68;;;3.58;;
49444;SDS011;35323;43.080;-81.378;2023-06-04T04:30:27;6.88;;;4.55;;
49444;SDS011;35323;43.080;-81.378;2023-06-04T04:32:55;4.53;;;3.00;;
49444;SDS011;35323;43.080;-81.378;2023-06-04T04:35:23;9.85;;;3.38;;
49444;SDS011;35323;43.080;-81.378;2023-06-04T04:37:51;8.70;;;3.83;;
49444;SDS011;35323;43.080;-81.378;2023-06-04T04:40:18;9.20;;;4.30;;
49444;SDS011;35323;43.080;-81.378;2023-06-04T04:42:46;4.60;;;3.83;;
49444;SDS011;35323;43.080;-81.378;2023-06-04T04:45:16;6.88;;;3.92;;
49444;SDS011;35323;43.080;-81.378;2023-06-04T04:47:44;5.20;;;3.58;;
49444;SDS011;35323;43.080;-81.378;2023-06-04T04:50:12;3.47;;;3.13;;
49444;SDS011;35323;43.080;-81.378;2023-06-04T04:52:42;6.05;;;3.88;;
49444;SDS011;35323;43.080;-81.378;2023-06-04T04:55:10;9.18;;;5.47;;
49444;SDS011;35323;43.080;-81.378;2023-06-04T04:57:39;5.45;;;3.30;;
49444;SDS011;35323;43.080;-81.378;2023-06-04T05:00:07;5.55;;;3.90;;
49444;SDS011;35323;43.080;-81.378;2023-06-04T05:02:37;5.47;;;3.70;;
49444;SDS011;35323;43.080;-81.378;2023-06-04T05:05:06;5.43;;;4.03;;
49444;SDS011;35323;43.080;-81.378;2023-06-04T05:07:33;3.78;;;2.50;;
49444;SDS011;35323;43.080;-81.378;2023-06-04T05:10:01;12.70;;;4.55;;
49444;SDS011;35323;43.080;-81.378;2023-06-04T05:12:29;3.58;;;3.03;;
49444;SDS011;35323;43.080;-81.378;2023-06-04T05:14:58;5.95;;;3.90;;
49444;SDS011;35323;43.080;-81.378;2023-06-04T05:17:30;8.57;;;3.50;;
49444;SDS011;35323;43.080;-81.378;2023-06-04T05:19:58;7.13;;;3.40;;
49444;SDS011;35323;43.080;-81.378;2023-06-04T05:22:32;5.93;;;3.72;;
49444;SDS011;35323;43.080;-81.378;2023-06-04T05:24:59;5.10;;;2.63;;
49444;SDS011;35323;43.080;-81.378;2023-06-04T05:27:27;8.70;;;3.63;;
49444;SDS011;35323;43.080;-81.378;2023-06-04T05:29:55;3.63;;;3.13;;
49444;SDS011;35323;43.080;-81.378;2023-06-04T05:32:23;6.05;;;3.10;;
49444;SDS011;35323;43.080;-81.378;2023-06-04T05:34:54;5.47;;;4.82;;
49444;SDS011;35323;43.080;-81.378;2023-06-04T05:37:27;7.38;;;3.05;;
49444;SDS011;35323;43.080;-81.378;2023-06-04T05:39:55;5.15;;;3.63;;
49444;SDS011;35323;43.080;-81.378;2023-06-04T05:42:23;5.07;;;3.35;;
49444;SDS011;35323;43.080;-81.378;2023-06-04T05:44:51;5.72;;;3.88;;
49444;SDS011;35323;43.080;-81.378;2023-06-04T05:47:19;7.43;;;2.78;;
49444;SDS011;35323;43.080;-81.378;2023-06-04T05:49:47;7.43;;;3.67;;
49444;SDS011;35323;43.080;-81.378;2023-06-04T05:52:18;5.43;;;3.38;;
49444;SDS011;35323;43.080;-81.378;2023-06-04T05:54:45;11.45;;;3.83;;
49444;SDS011;35323;43.080;-81.378;2023-06-04T05:57:13;6.40;;;2.90;;
49444;SDS011;35323;43.080;-81.378;2023-06-04T05:59:41;5.80;;;3.88;;
49444;SDS011;35323;43.080;-81.378;2023-06-04T06:02:09;5.50;;;3.85;;
49444;SDS011;35323;43.080;-81.378;2023-06-04T06:04:37;5.68;;;2.10;;
49444;SDS011;35323;43.080;-81.378;2023-06-04T06:07:05;5.88;;;2.47;;
49444;SDS011;35323;43.080;-81.378;2023-06-04T06:09:33;6.00;;;3.33;;
49444;SDS011;35323;43.080;-81.378;2023-06-04T06:12:04;6.00;;;2.38;;
49444;SDS011;35323;43.080;-81.378;2023-06-04T06:14:33;4.18;;;2.22;;
49444;SDS011;35323;43.080;-81.378;2023-06-04T06:17:00;5.88;;;2.75;;
49444;SDS011;35323;43.080;-81.378;2023-06-04T06:19:30;6.38;;;2.50;;
49444;SDS011;35323;43.080;-81.378;2023-06-04T06:21:57;7.00;;;2.88;;
49444;SDS011;35323;43.080;-81.378;2023-06-04T06:24:26;4.93;;;2.60;;
49444;SDS011;35323;43.080;-81.378;2023-06-04T06:26:53;5.30;;;2.40;;
49444;SDS011;35323;43.080;-81.378;2023-06-04T06:29:24;3.75;;;3.08;;
49444;SDS011;35323;43.080;-81.378;2023-06-04T06:31:52;5.55;;;3.45;;
49444;SDS011;35323;43.080;-81.378;2023-06-04T06:34:20;5.25;;;3.60;;
49444;SDS011;35323;43.080;-81.378;2023-06-04T06:36:47;4.43;;;3.25;;
49444;SDS011;35323;43.080;-81.378;2023-06-04T06:39:15;6.53;;;2.42;;
49444;SDS011;35323;43.080;-81.378;2023-06-04T06:41:43;3.53;;;2.53;;
49444;SDS011;35323;43.080;-81.378;2023-06-04T06:44:10;3.50;;;3.03;;
49444;SDS011;35323;43.080;-81.378;2023-06-04T06:46:38;8.48;;;4.25;;
49444;SDS011;35323;43.080;-81.378;2023-06-04T06:49:06;3.83;;;2.95;;
49444;SDS011;35323;43.080;-81.378;2023-06-04T06:51:33;4.95;;;2.78;;
49444;SDS011;35323;43.080;-81.378;2023-06-04T06:54:01;4.88;;;3.08;;
49444;SDS011;35323;43.080;-81.378;2023-06-04T06:56:28;10.35;;;3.72;;
49444;SDS011;35323;43.080;-81.378;2023-06-04T06:58:57;3.25;;;2.95;;
49444;SDS011;35323;43.080;-81.378;2023-06-04T07:01:25;3.42;;;2.88;;
49444;SDS011;35323;43.080;-81.378;2023-06-04T07:03:52;5.00;;;2.63;;
49444;SDS011;35323;43.080;-81.378;2023-06-04T07:06:20;6.85;;;3.67;;
49444;SDS011;35323;43.080;-81.378;2023-06-04T07:08:48;7.20;;;2.60;;
49444;SDS011;35323;43.080;-81.378;2023-06-04T07:11:16;2.70;;;2.35;;
49444;SDS011;35323;43.080;-81.378;2023-06-04T07:13:44;6.88;;;3.78;;
49444;SDS011;35323;43.080;-81.378;2023-06-04T07:16:11;7.22;;;2.45;;
49444;SDS011;35323;43.080;-81.378;2023-06-04T07:18:39;5.15;;;3.30;;
49444;SDS011;35323;43.080;-81.378;2023-06-04T07:21:06;4.15;;;2.72;;
49444;SDS011;35323;43.080;-81.378;2023-06-04T07:23:34;3.92;;;2.83;;
49444;SDS011;35323;43.080;-81.378;2023-06-04T07:26:02;7.45;;;3.72;;
49444;SDS011;35323;43.080;-81.378;2023-06-04T07:28:30;4.47;;;3.20;;
49444;SDS011;35323;43.080;-81.378;2023-06-04T07:30:58;5.03;;;2.85;;
49444;SDS011;35323;43.080;-81.378;2023-06-04T07:33:25;5.13;;;2.58;;
49444;SDS011;35323;43.080;-81.378;2023-06-04T07:35:54;4.40;;;2.45;;
49444;SDS011;35323;43.080;-81.378;2023-06-04T07:38:22;6.07;;;3.55;;
49444;SDS011;35323;43.080;-81.378;2023-06-04T07:40:52;4.22;;;2.63;;
49444;SDS011;35323;43.080;-81.378;2023-06-04T07:43:20;3.85;;;2.67;;
49444;SDS011;35323;43.080;-81.378;2023-06-04T07:45:47;5.68;;;2.58;;
49444;SDS011;35323;43.080;-81.378;2023-06-04T07:48:15;4.15;;;2.75;;
49444;SDS011;35323;43.080;-81.378;2023-06-04T07:50:43;8.27;;;3.13;;
49444;SDS011;35323;43.080;-81.378;2023-06-04T07:53:10;9.05;;;2.97;;
49444;SDS011;35323;43.080;-81.378;2023-06-04T07:55:38;4.47;;;2.00;;
49444;SDS011;35323;43.080;-81.378;2023-06-04T07:58:06;7.60;;;2.72;;
49444;SDS011;35323;43.080;-81.378;2023-06-04T08:00:33;3.03;;;2.08;;
49444;SDS011;35323;43.080;-81.378;2023-06-04T08:03:01;3.90;;;2.10;;
49444;SDS011;35323;43.080;-81.378;2023-06-04T08:05:29;5.93;;;3.35;;
49444;SDS011;35323;43.080;-81.378;2023-06-04T08:07:57;5.43;;;1.77;;
49444;SDS011;35323;43.080;-81.378;2023-06-04T08:10:25;4.03;;;2.85;;
49444;SDS011;35323;43.080;-81.378;2023-06-04T08:12:52;3.70;;;2.13;;
49444;SDS011;35323;43.080;-81.378;2023-06-04T08:15:20;2.70;;;2.35;;
49444;SDS011;35323;43.080;-81.378;2023-06-04T08:17:48;4.68;;;2.10;;
49444;SDS011;35323;43.080;-81.378;2023-06-04T08:20:16;4.95;;;3.28;;
49444;SDS011;35323;43.080;-81.378;2023-06-04T08:22:43;3.20;;;2.10;;
49444;SDS011;35323;43.080;-81.378;2023-06-04T08:25:11;5.20;;;2.25;;
49444;SDS011;35323;43.080;-81.378;2023-06-04T08:27:41;6.35;;;4.25;;
49444;SDS011;35323;43.080;-81.378;2023-06-04T08:30:12;5.93;;;2.33;;
49444;SDS011;35323;43.080;-81.378;2023-06-04T08:32:39;4.60;;;2.17;;
49444;SDS011;35323;43.080;-81.378;2023-06-04T08:35:08;4.82;;;3.30;;
49444;SDS011;35323;43.080;-81.378;2023-06-04T08:37:35;4.15;;;2.33;;
49444;SDS011;35323;43.080;-81.378;2023-06-04T08:40:03;4.00;;;2.45;;
49444;SDS011;35323;43.080;-81.378;2023-06-04T08:42:38;6.95;;;3.17;;
49444;SDS011;35323;43.080;-81.378;2023-06-04T08:45:07;3.22;;;1.73;;
49444;SDS011;35323;43.080;-81.378;2023-06-04T08:47:37;5.50;;;2.40;;
49444;SDS011;35323;43.080;-81.378;2023-06-04T08:50:06;3.17;;;1.95;;
49444;SDS011;35323;43.080;-81.378;2023-06-04T08:52:37;5.55;;;2.47;;
49444;SDS011;35323;43.080;-81.378;2023-06-04T08:55:05;4.60;;;2.33;;
49444;SDS011;35323;43.080;-81.378;2023-06-04T08:57:32;3.85;;;2.10;;
49444;SDS011;35323;43.080;-81.378;2023-06-04T09:00:01;3.22;;;1.70;;
49444;SDS011;35323;43.080;-81.378;2023-06-04T09:02:32;3.15;;;1.92;;
49444;SDS011;35323;43.080;-81.378;2023-06-04T09:05:06;2.13;;;1.73;;
49444;SDS011;35323;43.080;-81.378;2023-06-04T09:07:36;6.93;;;2.55;;
49444;SDS011;35323;43.080;-81.378;2023-06-04T09:10:04;6.07;;;1.98;;
49444;SDS011;35323;43.080;-81.378;2023-06-04T09:12:42;4.75;;;3.25;;
49444;SDS011;35323;43.080;-81.378;2023-06-04T09:15:11;6.07;;;3.03;;
49444;SDS011;35323;43.080;-81.378;2023-06-04T09:17:39;2.38;;;1.75;;
49444;SDS011;35323;43.080;-81.378;2023-06-04T09:20:20;5.45;;;2.97;;
49444;SDS011;35323;43.080;-81.378;2023-06-04T09:22:48;12.63;;;2.20;;
49444;SDS011;35323;43.080;-81.378;2023-06-04T09:25:25;2.88;;;2.53;;
49444;SDS011;35323;43.080;-81.378;2023-06-04T09:27:53;4.60;;;2.33;;
49444;SDS011;35323;43.080;-81.378;2023-06-04T09:30:23;9.15;;;2.85;;
49444;SDS011;35323;43.080;-81.378;2023-06-04T09:32:52;3.70;;;2.85;;
49444;SDS011;35323;43.080;-81.378;2023-06-04T09:35:20;2.67;;;1.80;;
49444;SDS011;35323;43.080;-81.378;2023-06-04T09:37:52;3.75;;;1.77;;
49444;SDS011;35323;43.080;-81.378;2023-06-04T09:40:20;4.80;;;3.38;;
49444;SDS011;35323;43.080;-81.378;2023-06-04T09:42:48;3.40;;;2.13;;
49444;SDS011;35323;43.080;-81.378;2023-06-04T09:45:29;3.85;;;2.42;;
49444;SDS011;35323;43.080;-81.378;2023-06-04T09:48:00;5.70;;;2.45;;
49444;SDS011;35323;43.080;-81.378;2023-06-04T09:50:33;2.75;;;1.92;;
49444;SDS011;35323;43.080;-81.378;2023-06-04T09:53:01;4.70;;;2.20;;
49444;SDS011;35323;43.080;-81.378;2023-06-04T09:55:30;2.42;;;2.00;;
49444;SDS011;35323;43.080;-81.378;2023-06-04T09:57:57;2.25;;;2.03;;
49444;SDS011;35323;43.080;-81.378;2023-06-04T10:00:26;8.50;;;2.20;;
49444;SDS011;35323;43.080;-81.378;2023-06-04T10:02:58;4.82;;;2.22;;
49444;SDS011;35323;43.080;-81.378;2023-06-04T10:05:32;4.30;;;2.65;;
49444;SDS011;35323;43.080;-81.378;2023-06-04T10:08:02;4.20;;;2.30;;
49444;SDS011;35323;43.080;-81.378;2023-06-04T10:10:34;4.78;;;2.00;;
49444;SDS011;35323;43.080;-81.378;2023-06-04T10:13:05;2.70;;;2.25;;
49444;SDS011;35323;43.080;-81.378;2023-06-04T10:15:35;5.05;;;3.33;;
49444;SDS011;35323;43.080;-81.378;2023-06-04T10:18:03;5.13;;;1.80;;
49444;SDS011;35323;43.080;-81.378;2023-06-04T10:20:31;5.03;;;2.53;;
49444;SDS011;35323;43.080;-81.378;2023-06-04T10:22:59;2.78;;;2.00;;
49444;SDS011;35323;43.080;-81.378;2023-06-04T10:25:30;2.63;;;2.20;;
49444;SDS011;35323;43.080;-81.378;2023-06-04T10:27:58;4.18;;;2.25;;
49444;SDS011;35323;43.080;-81.378;2023-06-04T10:30:27;4.55;;;2.33;;
49444;SDS011;35323;43.080;-81.378;2023-06-04T10:32:54;5.38;;;2.08;;
49444;SDS011;35323;43.080;-81.378;2023-06-04T10:35:33;4.65;;;3.58;;
49444;SDS011;35323;43.080;-81.378;2023-06-04T10:38:05;4.03;;;2.17;;
49444;SDS011;35323;43.080;-81.378;2023-06-04T10:40:33;6.25;;;2.67;;
49444;SDS011;35323;43.080;-81.378;2023-06-04T10:43:04;3.97;;;2.90;;
49444;SDS011;35323;43.080;-81.378;2023-06-04T10:45:32;7.20;;;2.80;;
49444;SDS011;35323;43.080;-81.378;2023-06-04T10:48:00;4.82;;;3.45;;
49444;SDS011;35323;43.080;-81.378;2023-06-04T10:50:28;4.97;;;2.55;;
49444;SDS011;35323;43.080;-81.378;2023-06-04T10:52:56;4.53;;;2.15;;
49444;SDS011;35323;43.080;-81.378;2023-06-04T10:55:30;3.13;;;1.98;;
49444;SDS011;35323;43.080;-81.378;2023-06-04T10:57:58;1.92;;;1.58;;
49444;SDS011;35323;43.080;-81.378;2023-06-04T11:00:39;5.13;;;2.35;;
49444;SDS011;35323;43.080;-81.378;2023-06-04T11:03:09;6.28;;;2.13;;
49444;SDS011;35323;43.080;-81.378;2023-06-04T11:05:38;2.50;;;2.25;;
49444;SDS011;35323;43.080;-81.378;2023-06-04T11:08:06;3.58;;;1.92;;
49444;SDS011;35323;43.080;-81.378;2023-06-04T11:10:34;5.57;;;1.95;;
49444;SDS011;35323;43.080;-81.378;2023-06-04T11:13:03;3.97;;;2.13;;
49444;SDS011;35323;43.080;-81.378;2023-06-04T11:15:40;4.25;;;2.13;;
49444;SDS011;35323;43.080;-81.378;2023-06-04T11:18:12;3.53;;;2.13;;
49444;SDS011;35323;43.080;-81.378;2023-06-04T11:20:40;5.35;;;2.63;;
49444;SDS011;35323;43.080;-81.378;2023-06-04T11:23:11;6.32;;;2.85;;
49444;SDS011;35323;43.080;-81.378;2023-06-04T11:25:38;4.15;;;2.35;;
49444;SDS011;35323;43.080;-81.378;2023-06-04T11:28:06;4.05;;;2.70;;
49444;SDS011;35323;43.080;-81.378;2023-06-04T11:30:34;1.83;;;1.20;;
49444;SDS011;35323;43.080;-81.378;2023-06-04T11:33:02;3.08;;;2.75;;
49444;SDS011;35323;43.080;-81.378;2023-06-04T11:35:30;6.57;;;2.75;;
49444;SDS011;35323;43.080;-81.378;2023-06-04T11:37:58;5.82;;;1.92;;
49444;SDS011;35323;43.080;-81.378;2023-06-04T11:40:26;4.03;;;1.90;;
49444;SDS011;35323;43.080;-81.378;2023-06-04T11:42:54;3.88;;;1.58;;
49444;SDS011;35323;43.080;-81.378;2023-06-04T11:45:25;3.90;;;2.25;;
49444;SDS011;35323;43.080;-81.378;2023-06-04T11:47:57;6.13;;;2.30;;
49444;SDS011;35323;43.080;-81.378;2023-06-04T11:50:28;5.97;;;2.67;;
49444;SDS011;35323;43.080;-81.378;2023-06-04T11:52:56;3.63;;;1.90;;
49444;SDS011;35323;43.080;-81.378;2023-06-04T11:55:23;4.80;;;3.15;;
49444;SDS011;35323;43.080;-81.378;2023-06-04T11:57:51;2.83;;;2.63;;
49444;SDS011;35323;43.080;-81.378;2023-06-04T12:00:20;3.35;;;2.10;;
49444;SDS011;35323;43.080;-81.378;2023-06-04T12:02:52;4.43;;;3.08;;
49444;SDS011;35323;43.080;-81.378;2023-06-04T12:05:21;3.38;;;1.85;;
49444;SDS011;35323;43.080;-81.378;2023-06-04T12:07:52;4.32;;;2.13;;
49444;SDS011;35323;43.080;-81.378;2023-06-04T12:10:19;4.93;;;2.30;;
49444;SDS011;35323;43.080;-81.378;2023-06-04T12:12:53;4.72;;;1.90;;
49444;SDS011;35323;43.080;-81.378;2023-06-04T12:15:24;2.97;;;2.15;;
49444;SDS011;35323;43.080;-81.378;2023-06-04T12:17:54;6.95;;;2.08;;
49444;SDS011;35323;43.080;-81.378;2023-06-04T12:20:35;5.13;;;2.00;;
49444;SDS011;35323;43.080;-81.378;2023-06-04T12:23:03;3.28;;;1.80;;
49444;SDS011;35323;43.080;-81.378;2023-06-04T12:25:32;1.85;;;1.75;;
49444;SDS011;35323;43.080;-81.378;2023-06-04T12:27:59;2.85;;;2.42;;
49444;SDS011;35323;43.080;-81.378;2023-06-04T12:30:37;3.63;;;2.08;;
49444;SDS011;35323;43.080;-81.378;2023-06-04T12:33:05;3.58;;;1.65;;
49444;SDS011;35323;43.080;-81.378;2023-06-04T12:35:34;4.30;;;2.63;;
49444;SDS011;35323;43.080;-81.378;2023-06-04T12:38:05;4.82;;;1.85;;
49444;SDS011;35323;43.080;-81.378;2023-06-04T12:40:32;4.38;;;3.05;;
49444;SDS011;35323;43.080;-81.378;2023-06-04T12:43:00;3.47;;;2.28;;
49444;SDS011;35323;43.080;-81.378;2023-06-04T12:45:28;2.83;;;1.63;;
49444;SDS011;35323;43.080;-81.378;2023-06-04T12:47:56;2.33;;;1.73;;
49444;SDS011;35323;43.080;-81.378;2023-06-04T12:50:23;4.32;;;2.13;;
49444;SDS011;35323;43.080;-81.378;2023-06-04T12:52:51;1.77;;;1.63;;
49444;SDS011;35323;43.080;-81.378;2023-06-04T12:55:18;2.38;;;2.17;;
49444;SDS011;35323;43.080;-81.378;2023-06-04T12:57:46;2.25;;;2.05;;
49444;SDS011;35323;43.080;-81.378;2023-06-04T13:00:14;5.32;;;1.83;;
49444;SDS011;35323;43.080;-81.378;2023-06-04T13:02:43;3.47;;;2.22;;
49444;SDS011;35323;43.080;-81.378;2023-06-04T13:05:11;1.85;;;1.40;;
49444;SDS011;35323;43.080;-81.378;2023-06-04T13:07:38;4.63;;;2.72;;
49444;SDS011;35323;43.080;-81.378;2023-06-04T13:10:06;3.65;;;3.33;;
49444;SDS011;35323;43.080;-81.378;2023-06-04T13:12:34;3.47;;;1.95;;
49444;SDS011;35323;43.080;-81.378;2023-06-04T13:15:02;2.88;;;1.88;;
49444;SDS011;35323;43.080;-81.378;2023-06-04T13:17:30;3.15;;;1.90;;
49444;SDS011;35323;43.080;-81.378;2023-06-04T13:19:58;4.05;;;2.50;;
49444;SDS011;35323;43.080;-81.378;2023-06-04T13:22:26;3.42;;;1.83;;
49444;SDS011;35323;43.080;-81.378;2023-06-04T13:24:53;4.47;;;3.03;;
49444;SDS011;35323;43.080;-81.378;2023-06-04T13:27:21;4.28;;;2.25;;
49444;SDS011;35323;43.080;-81.378;2023-06-04T13:29:49;1.92;;;1.70;;
49444;SDS011;35323;43.080;-81.378;2023-06-04T13:32:16;4.40;;;2.22;;
49444;SDS011;35323;43.080;-81.378;2023-06-04T13:34:46;5.63;;;2.90;;
49444;SDS011;35323;43.080;-81.378;2023-06-04T13:37:13;2.45;;;2.25;;
49444;SDS011;35323;43.080;-81.378;2023-06-04T13:39:41;4.18;;;2.67;;
49444;SDS011;35323;43.080;-81.378;2023-06-04T13:42:08;3.50;;;2.05;;
49444;SDS011;35323;43.080;-81.378;2023-06-04T13:44:36;2.33;;;2.13;;
49444;SDS011;35323;43.080;-81.378;2023-06-04T13:47:04;3.65;;;2.40;;
49444;SDS011;35323;43.080;-81.378;2023-06-04T13:49:34;3.90;;;2.55;;
49444;SDS011;35323;43.080;-81.378;2023-06-04T13:52:02;5.10;;;2.40;;
49444;SDS011;35323;43.080;-81.378;2023-06-04T13:54:30;2.47;;;2.28;;
49444;SDS011;35323;43.080;-81.378;2023-06-04T13:57:01;4.43;;;2.67;;
49444;SDS011;35323;43.080;-81.378;2023-06-04T13:59:30;3.35;;;2.97;;
49444;SDS011;35323;43.080;-81.378;2023-06-04T14:01:59;4.00;;;2.97;;
49444;SDS011;35323;43.080;-81.378;2023-06-04T14:04:27;3.65;;;2.97;;
49444;SDS011;35323;43.080;-81.378;2023-06-04T14:06:57;7.93;;;3.25;;
49444;SDS011;35323;43.080;-81.378;2023-06-04T14:09:25;3.92;;;2.08;;
49444;SDS011;35323;43.080;-81.378;2023-06-04T14:11:53;6.47;;;2.95;;
49444;SDS011;35323;43.080;-81.378;2023-06-04T14:14:21;5.75;;;3.22;;
49444;SDS011;35323;43.080;-81.378;2023-06-04T14:16:49;6.13;;;2.42;;
49444;SDS011;35323;43.080;-81.378;2023-06-04T14:19:16;4.22;;;2.80;;
49444;SDS011;35323;43.080;-81.378;2023-06-04T14:21:44;4.40;;;3.25;;
49444;SDS011;35323;43.080;-81.378;2023-06-04T14:24:12;6.97;;;4.57;;
49444;SDS011;35323;43.080;-81.378;2023-06-04T14:26:39;4.03;;;3.10;;
49444;SDS011;35323;43.080;-81.378;2023-06-04T14:29:07;5.13;;;3.45;;
49444;SDS011;35323;43.080;-81.378;2023-06-04T14:31:35;5.32;;;4.32;;
49444;SDS011;35323;43.080;-81.378;2023-06-04T14:34:03;5.65;;;3.45;;
49444;SDS011;35323;43.080;-81.378;2023-06-04T14:36:30;5.43;;;4.32;;